createdAt,value
2018-11-29T00:00:30.017Z,101321.14
2018-11-29T00:02:58.187Z,101313.06
2018-11-29T00:05:26.335Z,101309.50
2018-11-29T00:07:54.551Z,101303.27
2018-11-29T00:10:22.688Z,101302.64
2018-11-29T00:12:50.839Z,101312.13
2018-11-29T00:15:18.989Z,101305.09
2018-11-29T00:17:47.153Z,101310.44
2018-11-29T00:20:16.309Z,101313.45
2018-11-29T00:22:45.310Z,101316.25
2018-11-29T00:25:14.414Z,101326.21
2018-11-29T00:27:42.762Z,101314.76
2018-11-29T00:30:17.026Z,101309.75
2018-11-29T00:32:45.168Z,101309.28
2018-11-29T00:35:14.202Z,101309.95
2018-11-29T00:37:42.422Z,101301.59
2018-11-29T00:40:15.573Z,101297.55
2018-11-29T00:42:43.781Z,101317.65
2018-11-29T00:45:13.001Z,101308.82
2018-11-29T00:47:41.349Z,101306.47
2018-11-29T00:50:14.429Z,101301.22
2018-11-29T00:52:43.484Z,101295.86
2018-11-29T00:55:12.766Z,101305.44
2018-11-29T00:57:40.997Z,101303.09
2018-11-29T01:00:15.209Z,101294.64
2018-11-29T01:02:43.445Z,101293.70
2018-11-29T01:05:11.705Z,101301.78
2018-11-29T01:07:39.904Z,101303.09
2018-11-29T01:10:13.154Z,101303.00
2018-11-29T01:12:41.449Z,101307.50
2018-11-29T01:15:10.993Z,101307.22
2018-11-29T01:17:39.166Z,101310.13
2018-11-29T01:20:09.250Z,101306.85
2018-11-29T01:22:37.420Z,101309.86
2018-11-29T01:25:06.632Z,101314.65
2018-11-29T01:27:34.789Z,101304.31
2018-11-29T01:30:02.970Z,101299.24
2018-11-29T01:32:31.112Z,101306.28
2018-11-29T01:34:59.258Z,101308.73
2018-11-29T01:37:27.497Z,101310.23
2018-11-29T01:39:55.637Z,101306.28
2018-11-29T01:42:23.840Z,101307.22
2018-11-29T01:44:51.996Z,101310.61
2018-11-29T01:47:20.158Z,101307.69
2018-11-29T01:49:48.326Z,101313.42
2018-11-29T01:52:16.501Z,101313.42
2018-11-29T01:54:44.781Z,101317.18
2018-11-29T01:57:12.996Z,101318.50
2018-11-29T01:59:41.144Z,101310.61
2018-11-29T02:02:09.301Z,101309.09
2018-11-29T02:04:37.456Z,101306.94
2018-11-29T02:07:05.597Z,101313.13
2018-11-29T02:09:33.788Z,101307.87
2018-11-29T02:12:01.941Z,101311.35
2018-11-29T02:14:30.095Z,101306.28
2018-11-29T02:16:58.242Z,101306.87
2018-11-29T02:19:26.424Z,101307.81
2018-11-29T02:21:54.573Z,101308.91
2018-11-29T02:24:22.721Z,101304.02
2018-11-29T02:26:50.876Z,101305.81
2018-11-29T02:29:19.043Z,101296.05
2018-11-29T02:31:47.175Z,101295.58
2018-11-29T02:34:15.317Z,101289.38
2018-11-29T02:36:43.542Z,101288.06
2018-11-29T02:39:11.694Z,101286.66
2018-11-29T02:41:39.859Z,101283.18
2018-11-29T02:44:08.007Z,101289.00
2018-11-29T02:46:36.156Z,101276.23
2018-11-29T02:49:04.324Z,101274.63
2018-11-29T02:51:32.483Z,101269.38
2018-11-29T02:54:00.669Z,101269.66
2018-11-29T02:56:28.881Z,101267.30
2018-11-29T02:58:58.824Z,101264.39
2018-11-29T03:01:26.995Z,101265.05
2018-11-29T03:03:55.301Z,101261.42
2018-11-29T03:06:23.913Z,101260.10
2018-11-29T03:08:52.096Z,101257.84
2018-11-29T03:11:20.277Z,101255.31
2018-11-29T03:13:48.427Z,101254.47
2018-11-29T03:16:16.553Z,101264.67
2018-11-29T03:18:44.701Z,101260.27
2018-11-29T03:21:12.873Z,101259.70
2018-11-29T03:23:41.052Z,101265.52
2018-11-29T03:26:09.203Z,101268.34
2018-11-29T03:28:37.348Z,101262.89
2018-11-29T03:31:05.590Z,101262.33
2018-11-29T03:33:33.770Z,101265.98
2018-11-29T03:36:01.918Z,101265.52
2018-11-29T03:38:30.082Z,101264.95
2018-11-29T03:40:58.262Z,101261.39
2018-11-29T03:43:26.421Z,101259.70
2018-11-29T03:45:54.609Z,101267.77
2018-11-29T03:48:22.810Z,101272.28
2018-11-29T03:50:50.940Z,101264.48
2018-11-29T03:53:19.224Z,101261.39
2018-11-29T03:55:47.414Z,101264.77
2018-11-29T03:58:15.571Z,101261.20
2018-11-29T04:00:43.717Z,101261.67
2018-11-29T04:03:11.861Z,101265.52
2018-11-29T04:05:40.081Z,101263.83
2018-11-29T04:08:08.278Z,101260.27
2018-11-29T04:10:36.504Z,101266.09
2018-11-29T04:13:04.778Z,101264.02
2018-11-29T04:15:32.962Z,101260.45
2018-11-29T04:18:01.146Z,101252.19
2018-11-29T04:20:29.320Z,101251.63
2018-11-29T04:22:57.485Z,101259.52
2018-11-29T04:25:25.664Z,101246.93
2018-11-29T04:27:53.837Z,101247.11
2018-11-29T04:30:22.062Z,101237.81
2018-11-29T04:32:50.308Z,101234.25
2018-11-29T04:35:18.522Z,101236.78
2018-11-29T04:37:46.661Z,101228.33
2018-11-29T04:40:15.732Z,101231.30
2018-11-29T04:42:43.969Z,101226.89
2018-11-29T04:45:13.090Z,101230.36
2018-11-29T04:47:41.244Z,101222.47
2018-11-29T04:50:09.509Z,101223.79
2018-11-29T04:52:37.666Z,101212.33
2018-11-29T04:55:06.601Z,101218.53
2018-11-29T04:57:34.757Z,101225.48
2018-11-29T05:00:02.951Z,101232.80
2018-11-29T05:02:31.094Z,101220.22
2018-11-29T05:04:59.405Z,101219.66
2018-11-29T05:07:27.541Z,101214.39
2018-11-29T05:09:55.684Z,101217.39
2018-11-29T05:12:23.906Z,101211.56
2018-11-29T05:14:52.055Z,101218.34
2018-11-29T05:17:20.235Z,101207.81
2018-11-29T05:19:48.398Z,101203.77
2018-11-29T05:22:16.536Z,101194.47
2018-11-29T05:24:44.742Z,101191.38
2018-11-29T05:27:12.888Z,101187.90
2018-11-29T05:29:41.029Z,101183.76
2018-11-29T05:32:09.178Z,101174.36
2018-11-29T05:34:37.358Z,101182.97
2018-11-29T05:37:06.474Z,101186.56
2018-11-29T05:39:34.696Z,101188.45
2018-11-29T05:42:02.862Z,101197.09
2018-11-29T05:44:31.117Z,101195.17
2018-11-29T05:46:59.267Z,101191.08
2018-11-29T05:49:27.418Z,101180.19
2018-11-29T05:51:55.580Z,101182.25
2018-11-29T05:54:23.737Z,101174.45
2018-11-29T05:56:51.894Z,101178.30
2018-11-29T05:59:20.133Z,101167.41
2018-11-29T06:01:49.198Z,101171.63
2018-11-29T06:04:17.384Z,101173.42
2018-11-29T06:06:45.572Z,101172.95
2018-11-29T06:09:13.709Z,101170.09
2018-11-29T06:11:41.852Z,101174.88
2018-11-29T06:14:10.041Z,101176.39
2018-11-29T06:16:38.552Z,101182.02
2018-11-29T06:19:07.998Z,101178.08
2018-11-29T06:21:36.148Z,101174.98
2018-11-29T06:24:04.774Z,101158.48
2018-11-29T06:26:32.945Z,101158.30
2018-11-29T06:29:01.220Z,101169.66
2018-11-29T06:31:29.365Z,101167.98
2018-11-29T06:33:57.602Z,101153.31
2018-11-29T06:36:25.742Z,101157.41
2018-11-29T06:38:54.633Z,101158.16
2018-11-29T06:41:24.564Z,101151.10
2018-11-29T06:43:52.785Z,101160.78
2018-11-29T06:46:21.129Z,101148.95
2018-11-29T06:48:49.348Z,101157.11
2018-11-29T06:51:17.502Z,101155.33
2018-11-29T06:53:50.981Z,101145.17
2018-11-29T06:56:19.252Z,101147.33
2018-11-29T06:58:47.428Z,101142.72
2018-11-29T07:01:15.564Z,101118.66
2018-11-29T07:03:43.802Z,101129.19
2018-11-29T07:06:11.967Z,101137.45
2018-11-29T07:08:40.159Z,101132.49
2018-11-29T07:11:08.370Z,101122.81
2018-11-29T07:13:36.530Z,101121.67
2018-11-29T07:16:04.702Z,101111.89
2018-11-29T07:18:32.869Z,101111.25
2018-11-29T07:21:12.375Z,101107.13
2018-11-29T07:23:40.560Z,101105.24
2018-11-29T07:26:08.729Z,101111.17
2018-11-29T07:28:36.945Z,101102.61
2018-11-29T07:31:05.215Z,101105.61
2018-11-29T07:33:33.391Z,101113.41
2018-11-29T07:36:01.520Z,101105.71
2018-11-29T07:38:29.724Z,101103.18
2018-11-29T07:40:57.953Z,101104.97
2018-11-29T07:43:26.146Z,101101.39
2018-11-29T07:45:54.349Z,101101.86
2018-11-29T07:48:22.525Z,101090.87
2018-11-29T07:50:50.704Z,101087.49
2018-11-29T07:53:18.860Z,101092.19
2018-11-29T07:55:47.180Z,101080.98
2018-11-29T07:58:15.361Z,101079.57
2018-11-29T08:00:43.579Z,101077.08
2018-11-29T08:03:11.738Z,101075.77
2018-11-29T08:05:39.949Z,101085.20
2018-11-29T08:08:08.119Z,101079.57
2018-11-29T08:10:36.325Z,101084.27
2018-11-29T08:13:04.765Z,101081.16
2018-11-29T08:15:33.162Z,101083.45
2018-11-29T08:18:01.350Z,101082.04
2018-11-29T08:20:29.621Z,101091.52
2018-11-29T08:22:57.864Z,101095.37
2018-11-29T08:25:26.128Z,101088.69
2018-11-29T08:27:54.320Z,101090.52
2018-11-29T08:30:23.113Z,101089.67
2018-11-29T08:32:51.260Z,101080.83
2018-11-29T08:35:19.570Z,101080.45
2018-11-29T08:37:48.017Z,101088.42
2018-11-29T08:40:17.438Z,101097.80
2018-11-29T08:42:45.707Z,101099.66
2018-11-29T08:45:13.996Z,101107.31
2018-11-29T08:47:42.205Z,101103.16
2018-11-29T08:50:12.596Z,101097.33
2018-11-29T08:52:41.687Z,101096.75
2018-11-29T08:55:15.209Z,101095.43
2018-11-29T08:57:43.437Z,101104.01
2018-11-29T09:00:15.857Z,101102.22
2018-11-29T09:02:44.153Z,101108.63
2018-11-29T09:05:13.022Z,101110.89
2018-11-29T09:07:41.620Z,101122.74
2018-11-29T09:10:11.096Z,101133.64
2018-11-29T09:12:39.325Z,101130.64
2018-11-29T09:15:09.358Z,101123.92
2018-11-29T09:17:37.561Z,101122.23
2018-11-29T09:20:08.372Z,101118.19
2018-11-29T09:22:36.658Z,101105.39
2018-11-29T09:25:06.488Z,101112.45
2018-11-29T09:27:34.759Z,101098.75
2018-11-29T09:30:03.037Z,101085.11
2018-11-29T09:32:31.229Z,101086.53
2018-11-29T09:34:59.440Z,101093.48
2018-11-29T09:37:27.684Z,101089.06
2018-11-29T09:39:55.848Z,101098.55
2018-11-29T09:42:24.127Z,101101.28
2018-11-29T09:44:52.296Z,101095.54
2018-11-29T09:47:20.444Z,101102.02
2018-11-29T09:49:48.634Z,101101.28
2018-11-29T09:52:16.804Z,101098.75
2018-11-29T09:54:44.957Z,101103.17
2018-11-29T09:57:13.144Z,101096.11
2018-11-29T09:59:41.328Z,101095.44
2018-11-29T10:02:09.538Z,101096.66
2018-11-29T10:04:37.697Z,101094.02
2018-11-29T10:07:06.198Z,101100.97
2018-11-29T10:09:34.401Z,101088.28
2018-11-29T10:12:02.546Z,101098.91
2018-11-29T10:14:30.728Z,101098.44
2018-11-29T10:16:58.950Z,101093.08
2018-11-29T10:19:27.157Z,101079.91
2018-11-29T10:21:55.341Z,101065.77
2018-11-29T10:24:23.505Z,101055.48
2018-11-29T10:26:51.684Z,101055.24
2018-11-29T10:29:19.873Z,101036.20
2018-11-29T10:31:48.025Z,101026.16
2018-11-29T10:34:16.185Z,101033.68
2018-11-29T10:36:44.363Z,101039.31
2018-11-29T10:39:12.543Z,101017.78
2018-11-29T10:41:40.710Z,101014.88
2018-11-29T10:44:08.848Z,100989.30
2018-11-29T10:46:37.049Z,100976.51
2018-11-29T10:49:05.214Z,100971.61
2018-11-29T10:51:33.356Z,100951.63
2018-11-29T10:54:01.567Z,100941.94
2018-11-29T10:56:29.725Z,100949.52
2018-11-29T10:58:57.889Z,100963.73
2018-11-29T11:01:31.349Z,100996.37
2018-11-29T11:04:00.348Z,101016.86
2018-11-29T11:06:28.533Z,101003.33
2018-11-29T11:08:56.733Z,101041.23
2018-11-29T11:11:24.909Z,101041.97
2018-11-29T11:13:53.049Z,101022.97
2018-11-29T11:16:21.226Z,101023.81
2018-11-29T11:18:49.380Z,101023.81
2018-11-29T11:21:17.578Z,100997.02
2018-11-29T11:23:45.742Z,101024.18
2018-11-29T11:26:13.936Z,101009.33
2018-11-29T11:28:42.081Z,101023.08
2018-11-29T11:31:11.118Z,100997.22
2018-11-29T11:33:39.340Z,100989.09
2018-11-29T11:36:07.525Z,101030.95
2018-11-29T11:38:35.679Z,101027.47
2018-11-29T11:41:03.861Z,101034.16
2018-11-29T11:43:32.034Z,101022.83
2018-11-29T11:46:00.235Z,100992.80
2018-11-29T11:48:28.377Z,100996.95
2018-11-29T11:50:56.541Z,100989.63
2018-11-29T11:53:24.717Z,100969.16
2018-11-29T11:55:53.707Z,100983.84
2018-11-29T11:58:21.056Z,100987.75
2018-11-29T12:00:49.250Z,100985.94
2018-11-29T12:03:17.588Z,100997.20
2018-11-29T12:05:45.806Z,101002.25
2018-11-29T12:08:13.936Z,100948.11
2018-11-29T12:10:43.191Z,100902.79
2018-11-29T12:13:11.397Z,100859.16
2018-11-29T12:15:39.625Z,100830.95
2018-11-29T12:18:10.189Z,100792.80
2018-11-29T12:20:38.410Z,100741.28
2018-11-29T12:23:07.541Z,100685.86
2018-11-29T12:25:35.693Z,100663.27
2018-11-29T12:28:03.917Z,100657.16
2018-11-29T12:30:33.809Z,100618.77
2018-11-29T12:33:03.110Z,100623.08
2018-11-29T12:35:31.429Z,100623.20
2018-11-29T12:38:00.171Z,100656.12
2018-11-29T12:40:28.665Z,100727.20
2018-11-29T12:42:57.090Z,100855.42
2018-11-29T12:45:25.380Z,100886.79
2018-11-29T12:47:53.574Z,100878.38
2018-11-29T12:50:25.105Z,100874.95
2018-11-29T12:52:53.593Z,100828.22
2018-11-29T12:55:23.006Z,100841.53
2018-11-29T12:58:04.714Z,100856.84
2018-11-29T13:00:26.373Z,100864.27
2018-11-29T13:02:57.834Z,100827.32
2018-11-29T13:05:27.813Z,100790.00
2018-11-29T13:08:03.371Z,100795.16
2018-11-29T13:10:38.248Z,100767.42
2018-11-29T13:13:09.118Z,100790.16
2018-11-29T13:15:39.964Z,100730.44
2018-11-29T13:18:12.064Z,100703.53
2018-11-29T13:20:42.128Z,100777.47
2018-11-29T13:23:13.699Z,100783.27
2018-11-29T13:25:41.969Z,100761.79
2018-11-29T13:28:13.969Z,100774.70
2018-11-29T13:30:44.633Z,100804.02
2018-11-29T13:33:15.141Z,100777.33
2018-11-29T13:35:45.666Z,100768.85
2018-11-29T13:38:21.109Z,100743.48
2018-11-29T13:40:51.060Z,100741.33
2018-11-29T13:43:18.408Z,100740.00
2018-11-29T13:45:46.876Z,100729.33
2018-11-29T13:48:19.949Z,100729.33
2018-11-29T13:50:50.271Z,100710.95
2018-11-29T13:53:21.465Z,100700.67
2018-11-29T13:55:50.278Z,100669.20
2018-11-29T13:58:18.603Z,100655.94
2018-11-29T14:00:47.115Z,100682.88
2018-11-29T14:03:15.762Z,100673.55
2018-11-29T14:05:44.029Z,100666.48
2018-11-29T14:08:12.363Z,100645.91
2018-11-29T14:10:41.837Z,100639.92
2018-11-29T14:13:10.152Z,100636.45
2018-11-29T14:15:38.585Z,100632.98
2018-11-29T14:18:07.278Z,100634.52
2018-11-29T14:20:35.654Z,100626.49
2018-11-29T14:23:03.576Z,100625.06
2018-11-29T14:25:31.733Z,100610.00
2018-11-29T14:27:59.873Z,100620.89
2018-11-29T14:30:28.874Z,100627.69
2018-11-29T14:33:00.117Z,100639.05
2018-11-29T14:35:28.257Z,100631.52
2018-11-29T14:37:56.436Z,100634.41
2018-11-29T14:40:25.773Z,100649.24
2018-11-29T14:42:54.076Z,100648.52
2018-11-29T14:45:24.373Z,100648.77
2018-11-29T14:47:52.570Z,100637.54
2018-11-29T14:50:24.056Z,100649.16
2018-11-29T14:52:52.228Z,100646.53
2018-11-29T14:55:21.705Z,100647.48
2018-11-29T14:57:48.593Z,100653.19
2018-11-29T15:00:16.765Z,100656.55
2018-11-29T15:02:44.925Z,100653.33
2018-11-29T15:05:15.672Z,100654.05
2018-11-29T15:07:43.825Z,100649.38
2018-11-29T15:10:18.442Z,100655.09
2018-11-29T15:12:46.643Z,100651.88
2018-11-29T15:15:14.852Z,100651.28
2018-11-29T15:17:43.902Z,100646.02
2018-11-29T15:20:16.654Z,100635.86
2018-11-29T15:22:44.804Z,100621.16
2018-11-29T15:25:12.965Z,100623.42
2018-11-29T15:27:41.109Z,100627.14
2018-11-29T15:30:16.832Z,100630.73
2018-11-29T15:32:45.144Z,100630.25
2018-11-29T15:35:13.325Z,100632.64
2018-11-29T15:37:41.473Z,100631.44
2018-11-29T15:40:12.051Z,100626.06
2018-11-29T15:42:40.661Z,100630.00
2018-11-29T15:45:11.213Z,100633.59
2018-11-29T15:47:39.385Z,100627.48
2018-11-29T15:50:10.961Z,100626.64
2018-11-29T15:52:39.149Z,100637.17
2018-11-29T15:55:10.303Z,100643.39
2018-11-29T15:57:38.513Z,100652.12
2018-11-29T16:00:37.834Z,100649.97
2018-11-29T16:03:07.521Z,100657.03
2018-11-29T16:05:35.785Z,100667.19
2018-11-29T16:08:03.929Z,100682.14
2018-11-29T16:10:32.078Z,100686.68
2018-11-29T16:13:00.224Z,100691.10
2018-11-29T16:15:28.415Z,100696.36
2018-11-29T16:17:56.625Z,100697.91
2018-11-29T16:20:26.951Z,100709.05
2018-11-29T16:22:55.164Z,100703.16
2018-11-29T16:25:23.337Z,100693.23
2018-11-29T16:27:51.498Z,100681.02
2018-11-29T16:30:32.693Z,100679.34
2018-11-29T16:33:04.596Z,100680.06
2018-11-29T16:35:32.760Z,100678.75
2018-11-29T16:38:00.905Z,100679.01
2018-11-29T16:40:29.052Z,100685.00
2018-11-29T16:42:57.204Z,100684.38
2018-11-29T16:45:25.344Z,100687.85
2018-11-29T16:47:53.506Z,100683.43
2018-11-29T16:50:21.677Z,100685.22
2018-11-29T16:52:49.832Z,100684.05
2018-11-29T16:55:17.969Z,100696.22
2018-11-29T16:57:48.152Z,100701.37
2018-11-29T17:00:18.146Z,100717.42
2018-11-29T17:02:46.293Z,100717.42
2018-11-29T17:05:14.806Z,100731.64
2018-11-29T17:07:42.969Z,100727.22
2018-11-29T17:10:15.281Z,100696.73
2018-11-29T17:12:44.973Z,100692.08
2018-11-29T17:15:14.611Z,100704.55
2018-11-29T17:17:42.746Z,100698.55
2018-11-29T17:20:12.181Z,100688.14
2018-11-29T17:22:40.417Z,100700.70
2018-11-29T17:25:11.790Z,100696.98
2018-11-29T17:27:40.005Z,100694.13
2018-11-29T17:30:16.190Z,100687.80
2018-11-29T17:32:44.464Z,100679.42
2018-11-29T17:35:12.659Z,100681.78
2018-11-29T17:37:40.831Z,100682.51
2018-11-29T17:40:12.117Z,100663.36
2018-11-29T17:42:40.444Z,100668.98
2018-11-29T17:45:12.945Z,100690.26
2018-11-29T17:47:42.038Z,100700.20
2018-11-29T17:50:12.162Z,100699.36
2018-11-29T17:52:40.357Z,100702.36
2018-11-29T17:55:08.606Z,100698.37
2018-11-29T17:57:36.801Z,100700.67
2018-11-29T18:00:10.105Z,100704.01
2018-11-29T18:02:38.288Z,100706.64
2018-11-29T18:05:06.905Z,100692.89
2018-11-29T18:07:35.049Z,100701.48
2018-11-29T18:10:03.224Z,100723.05
2018-11-29T18:12:31.381Z,100724.36
2018-11-29T18:14:59.551Z,100729.84
2018-11-29T18:17:27.749Z,100721.84
2018-11-29T18:19:55.897Z,100718.73
2018-11-29T18:22:24.045Z,100724.98
2018-11-29T18:24:52.249Z,100725.71
2018-11-29T18:27:20.401Z,100721.66
2018-11-29T18:29:48.574Z,100717.12
2018-11-29T18:32:16.709Z,100709.44
2018-11-29T18:34:44.861Z,100704.06
2018-11-29T18:37:13.024Z,100701.33
2018-11-29T18:39:41.174Z,100700.96
2018-11-29T18:42:09.336Z,100711.23
2018-11-29T18:44:37.476Z,100708.34
2018-11-29T18:47:05.897Z,100712.30
2018-11-29T18:49:34.065Z,100717.45
2018-11-29T18:52:02.202Z,100711.34
2018-11-29T18:54:30.373Z,100714.45
2018-11-29T18:56:58.536Z,100707.29
2018-11-29T18:59:26.694Z,100715.08
2018-11-29T19:01:55.260Z,100718.44
2018-11-29T19:04:23.436Z,100716.75
2018-11-29T19:06:51.598Z,100713.03
2018-11-29T19:09:19.826Z,100701.55
2018-11-29T19:11:48.013Z,100692.70
2018-11-29T19:14:16.246Z,100701.32
2018-11-29T19:16:44.438Z,100691.37
2018-11-29T19:19:12.662Z,100687.18
2018-11-29T19:21:40.748Z,100688.39
2018-11-29T19:24:08.934Z,100684.77
2018-11-29T19:26:37.132Z,100677.61
2018-11-29T19:29:05.924Z,100671.73
2018-11-29T19:31:34.340Z,100663.72
2018-11-29T19:34:02.566Z,100671.39
2018-11-29T19:36:30.817Z,100654.76
2018-11-29T19:38:59.041Z,100653.70
2018-11-29T19:41:27.197Z,100677.75
2018-11-29T19:43:55.365Z,100677.75
2018-11-29T19:46:23.509Z,100680.86
2018-11-29T19:48:51.701Z,100673.80
2018-11-29T19:51:19.848Z,100671.27
2018-11-29T19:53:48.028Z,100658.48
2018-11-29T19:56:16.173Z,100660.63
2018-11-29T19:58:44.567Z,100665.89
2018-11-29T20:01:12.565Z,100678.33
2018-11-29T20:03:40.738Z,100690.42
2018-11-29T20:06:08.905Z,100702.16
2018-11-29T20:08:37.041Z,100701.32
2018-11-29T20:11:05.661Z,100699.78
2018-11-29T20:13:33.817Z,100704.09
2018-11-29T20:16:02.018Z,100697.52
2018-11-29T20:18:30.245Z,100692.25
2018-11-29T20:20:58.421Z,100688.77
2018-11-29T20:23:26.624Z,100690.93
2018-11-29T20:25:54.945Z,100691.30
2018-11-29T20:28:23.154Z,100687.70
2018-11-29T20:30:51.381Z,100688.07
2018-11-29T20:33:19.716Z,100695.02
2018-11-29T20:35:47.903Z,100686.16
2018-11-29T20:38:18.797Z,100681.27
2018-11-29T20:40:47.310Z,100681.27
2018-11-29T20:43:15.885Z,100679.95
2018-11-29T20:45:47.546Z,100676.48
2018-11-29T20:48:20.004Z,100671.80
2018-11-29T20:50:48.707Z,100666.53
2018-11-29T20:53:19.049Z,100663.17
2018-11-29T20:55:47.323Z,100659.70
2018-11-29T20:58:15.519Z,100653.13
2018-11-29T21:00:44.528Z,100654.78
2018-11-29T21:03:12.739Z,100649.52
2018-11-29T21:05:42.693Z,100649.88
2018-11-29T21:08:11.637Z,100640.77
2018-11-29T21:10:39.877Z,100628.56
2018-11-29T21:13:08.573Z,100620.30
2018-11-29T21:15:38.029Z,100639.09
2018-11-29T21:18:07.923Z,100663.63
2018-11-29T21:20:36.584Z,100668.78
2018-11-29T21:23:05.542Z,100664.47
2018-11-29T21:25:33.701Z,100664.60
2018-11-29T21:28:01.845Z,100670.82
2018-11-29T21:30:30.165Z,100672.39
2018-11-29T21:32:58.530Z,100678.86
2018-11-29T21:35:26.714Z,100687.82
2018-11-29T21:37:54.967Z,100691.80
2018-11-29T21:40:27.767Z,100686.16
2018-11-29T21:42:55.909Z,100694.43
2018-11-29T21:45:24.083Z,100704.70
2018-11-29T21:47:52.308Z,100695.85
2018-11-29T21:50:20.529Z,100701.95
2018-11-29T21:52:49.885Z,100698.26
2018-11-29T21:55:18.138Z,100691.08
2018-11-29T21:57:46.355Z,100694.67
2018-11-29T22:00:15.801Z,100697.78
2018-11-29T22:02:46.321Z,100683.55
2018-11-29T22:05:14.522Z,100697.91
2018-11-29T22:07:42.766Z,100696.01
2018-11-29T22:10:10.917Z,100681.05
2018-11-29T22:12:39.087Z,100673.63
2018-11-29T22:15:09.748Z,100669.41
2018-11-29T22:17:49.784Z,100667.87
2018-11-29T22:20:17.970Z,100667.75
2018-11-29T22:22:46.149Z,100671.70
2018-11-29T22:25:14.405Z,100678.16
2018-11-29T22:27:42.666Z,100672.06
2018-11-29T22:30:10.851Z,100677.69
2018-11-29T22:32:39.186Z,100675.78
2018-11-29T22:35:08.666Z,100670.63
2018-11-29T22:37:37.211Z,100678.41
2018-11-29T22:40:05.736Z,100682.00
2018-11-29T22:42:34.016Z,100682.95
2018-11-29T22:45:02.248Z,100687.27
2018-11-29T22:47:30.472Z,100684.52
2018-11-29T22:49:58.704Z,100679.73
2018-11-29T22:52:27.429Z,100684.52
2018-11-29T22:54:55.681Z,100685.00
2018-11-29T22:57:23.946Z,100682.73
2018-11-29T22:59:52.285Z,100682.84
2018-11-29T23:02:20.553Z,100683.68
2018-11-29T23:04:48.807Z,100679.00
2018-11-29T23:07:16.990Z,100680.91
2018-11-29T23:09:45.184Z,100678.89
2018-11-29T23:12:13.401Z,100682.84
2018-11-29T23:14:41.625Z,100671.95
2018-11-29T23:17:09.881Z,100673.84
2018-11-29T23:19:38.084Z,100658.52
2018-11-29T23:22:06.297Z,100660.34
2018-11-29T23:24:35.336Z,100662.61
2018-11-29T23:27:03.505Z,100669.66
2018-11-29T23:29:31.701Z,100659.12
2018-11-29T23:32:02.609Z,100648.11
2018-11-29T23:34:30.921Z,100637.83
2018-11-29T23:36:59.380Z,100635.30
2018-11-29T23:39:28.523Z,100640.21
2018-11-29T23:41:56.702Z,100656.49
2018-11-29T23:44:24.962Z,100651.95
2018-11-29T23:46:53.880Z,100642.73
2018-11-29T23:49:22.059Z,100652.31
2018-11-29T23:51:50.260Z,100648.59
2018-11-29T23:54:18.489Z,100654.47
2018-11-29T23:56:46.679Z,100653.03
2018-11-29T23:59:14.860Z,100654.13
